Nebraska City, NE

8:29 PM CST on February 01, 2015 (GMT -0600)
Offutt Air Force Base | Change Station
CLOSE
Current Station
Airport
Location: Omaha Offutt,
Elevation: 1047 ft
Nearby Weather Stations

Elev 1047 ft 41.12 °N, 95.91 °W | Updated 31 minutes ago

Snow
Snow
10 °F
Feels Like -7 °F
N
17
Wind Variable Wind from NW
Gusts 23 mph

Today
High -- | Low -- °F
--% Chance of Precip.
Yesterday
High -- | Low -- °F
Precip. -- in
7:33 AM 5:40 PM
Waxing Gibbous, 97% visible
Pressure 30.35 in
Visibility 10.0 miles
Clouds Scattered Clouds 1300 ft
Scattered Clouds 1900 ft
Windchill -7 °F
Dew Point 3 °F
Humidity 73%
Rainfall 0.13 in
Snow Depth Not available.
UV 0 out of 12
Pollen .10 out of 12
Air Quality Not available.
Flu Activity Not available.
METAR KOFF 020158Z 31015G20KT 10SM SCT013 SCT019 M12/M16 A3028 RMK AO2A SLP277 P0000

More Conditions Fewer Conditions

Pressure 30.35 in
Visibility 10.0 miles
Clouds Scattered Clouds 1300 ft
Scattered Clouds 1900 ft
Windchill -7 °F
Dew Point 3 °F
Humidity 73%
Rainfall 0.13 in
Snow Depth Not available.
UV 0 out of 12
Pollen .10 out of 12
Air Quality Not available.
Flu Activity Not available.
METAR KOFF 020158Z 31015G20KT 10SM SCT013 SCT019 M12/M16 A3028 RMK AO2A SLP277 P0000

More Conditions Fewer Conditions

10-Day Weather Forecast

Almanac

Astronomy

Feb. 01, 2015 Rise Set
Actual Time
Civil Twilight
Nautical Twilight
Astronomical Twilight
Moon
Length of Visible Light
Length of Day
Tomorrow will be .
, % of the Moon is Illuminated

Today's Extremes

State Highs State Lows

Community

WunderPhotos

Upload Photos

1,792,655 photos uploaded!

WunderBlogs® & News

Nearby

Air Quality

  Air Quality AQ Index Pollutant
Not available.

Snow Depth

Station Depth Elevation

Earthquake Activity

City Distance Mag. Time & Date
Minimum magnitude displayed is 2.5.

Coastal Water Temperatures

Place Temperature

Nearby Weather Stations